createdAt,value
2022-10-13T00:00:54.550Z,99.90
2022-10-13T00:03:22.376Z,99.90
2022-10-13T00:05:52.804Z,99.90
2022-10-13T00:08:22.746Z,99.90
2022-10-13T00:10:52.352Z,99.90
2022-10-13T00:13:21.165Z,99.90
2022-10-13T00:15:50.327Z,99.90
2022-10-13T00:18:18.398Z,99.90
2022-10-13T00:20:48.064Z,99.90
2022-10-13T00:23:16.343Z,99.90
2022-10-13T00:25:45.251Z,99.90
2022-10-13T00:28:13.245Z,99.90
2022-10-13T00:30:41.694Z,99.90
2022-10-13T00:33:12.159Z,99.90
2022-10-13T00:35:43.072Z,99.90
2022-10-13T00:38:11.315Z,99.90
2022-10-13T00:40:45.244Z,99.90
2022-10-13T00:43:20.329Z,99.90
2022-10-13T00:45:50.607Z,99.90
2022-10-13T00:48:23.230Z,99.90
2022-10-13T00:50:51.610Z,99.90
2022-10-13T00:53:22.306Z,99.90
2022-10-13T00:55:52.492Z,99.90
2022-10-13T00:58:24.354Z,99.90
2022-10-13T01:00:53.724Z,99.90
2022-10-13T01:03:23.496Z,99.90
2022-10-13T01:05:53.537Z,99.90
2022-10-13T01:08:22.772Z,99.90
2022-10-13T01:11:03.384Z,99.90
2022-10-13T01:13:40.571Z,99.90
2022-10-13T01:16:13.653Z,99.90
2022-10-13T01:18:52.161Z,99.90
2022-10-13T01:21:27.313Z,99.90
2022-10-13T01:24:29.327Z,99.90
2022-10-13T01:27:32.215Z,99.90
2022-10-13T01:30:19.876Z,99.90
2022-10-13T01:33:29.247Z,99.90
2022-10-13T01:36:05.754Z,99.90
2022-10-13T01:38:38.113Z,99.90
2022-10-13T01:41:12.646Z,99.90
2022-10-13T01:43:44.701Z,99.90
2022-10-13T01:46:18.593Z,99.90
2022-10-13T01:48:46.854Z,99.90
2022-10-13T01:51:21.255Z,99.90
2022-10-13T01:53:50.064Z,99.90
2022-10-13T01:56:18.030Z,99.90
2022-10-13T01:58:46.540Z,99.90
2022-10-13T02:01:30.095Z,99.90
2022-10-13T02:04:12.093Z,99.90
2022-10-13T02:06:45.911Z,99.90
2022-10-13T02:09:20.879Z,99.90
2022-10-13T02:11:53.023Z,99.90
2022-10-13T02:14:26.260Z,99.90
2022-10-13T02:16:56.929Z,99.90
2022-10-13T02:19:25.297Z,99.90
2022-10-13T02:21:54.222Z,99.90
2022-10-13T02:24:22.071Z,99.90
2022-10-13T02:26:50.921Z,99.90
2022-10-13T02:29:19.383Z,99.90
2022-10-13T02:31:48.231Z,99.90
2022-10-13T02:34:17.440Z,99.90
2022-10-13T02:36:45.216Z,99.90
2022-10-13T02:39:13.275Z,99.90
2022-10-13T02:41:41.071Z,99.90
2022-10-13T02:44:08.900Z,99.90
2022-10-13T02:46:36.808Z,99.90
2022-10-13T02:49:04.679Z,99.90
2022-10-13T02:51:38.982Z,99.90
2022-10-13T02:54:07.840Z,99.90
2022-10-13T02:56:35.695Z,99.90
2022-10-13T02:59:03.609Z,99.90
2022-10-13T03:01:31.435Z,99.90
2022-10-13T03:03:59.296Z,99.90
2022-10-13T03:06:27.109Z,99.90
2022-10-13T03:08:56.311Z,99.90
2022-10-13T03:11:24.112Z,99.90
2022-10-13T03:13:51.946Z,99.90
2022-10-13T03:16:20.552Z,99.90
2022-10-13T03:18:48.360Z,99.90
2022-10-13T03:21:16.205Z,99.90
2022-10-13T03:23:43.967Z,99.90
2022-10-13T03:26:13.084Z,99.90
2022-10-13T03:28:40.877Z,99.90
2022-10-13T03:31:10.506Z,99.90
2022-10-13T03:33:38.287Z,99.90
2022-10-13T03:36:07.404Z,99.90
2022-10-13T03:38:36.885Z,99.90
2022-10-13T03:41:08.972Z,99.90
2022-10-13T03:43:38.956Z,99.90
2022-10-13T03:46:08.235Z,99.90
2022-10-13T03:48:37.140Z,99.90
2022-10-13T03:51:07.332Z,99.90
2022-10-13T03:53:35.505Z,99.90
2022-10-13T03:56:04.087Z,99.90
2022-10-13T03:58:31.877Z,99.90
2022-10-13T04:01:06.325Z,99.90
2022-10-13T04:03:34.735Z,99.90
2022-10-13T04:06:03.449Z,99.90
2022-10-13T04:08:31.708Z,99.90
2022-10-13T04:11:00.780Z,99.90
2022-10-13T04:13:28.605Z,99.90
2022-10-13T04:15:56.399Z,99.90
2022-10-13T04:18:25.535Z,99.90
2022-10-13T04:20:53.316Z,99.90
2022-10-13T04:23:21.170Z,99.90
2022-10-13T04:25:48.988Z,99.90
2022-10-13T04:28:17.374Z,99.90
2022-10-13T04:30:49.267Z,99.90
2022-10-13T04:33:17.661Z,99.90
2022-10-13T04:35:46.852Z,99.90
2022-10-13T04:38:14.632Z,99.90
2022-10-13T04:40:42.433Z,99.90
2022-10-13T04:43:10.231Z,99.90
2022-10-13T04:45:38.000Z,99.90
2022-10-13T04:48:06.004Z,99.90
2022-10-13T04:50:33.773Z,99.90
2022-10-13T04:53:03.052Z,99.90
2022-10-13T04:55:30.871Z,99.90
2022-10-13T04:57:58.640Z,99.90
2022-10-13T05:00:26.684Z,99.90
2022-10-13T05:02:54.536Z,99.90
2022-10-13T05:05:22.296Z,99.90
2022-10-13T05:07:50.133Z,99.90
2022-10-13T05:10:19.291Z,99.90
2022-10-13T05:12:47.155Z,99.90
2022-10-13T05:15:14.969Z,99.90
2022-10-13T05:17:42.700Z,99.90
2022-10-13T05:20:11.629Z,99.90
2022-10-13T05:22:39.548Z,99.90
2022-10-13T05:25:07.703Z,99.90
2022-10-13T05:27:36.919Z,99.90
2022-10-13T05:30:04.966Z,99.90
2022-10-13T05:32:32.760Z,99.90
2022-10-13T05:35:00.609Z,99.90
2022-10-13T05:37:28.474Z,99.90
2022-10-13T05:39:56.258Z,99.90
2022-10-13T05:42:24.032Z,99.90
2022-10-13T05:44:53.153Z,99.90
2022-10-13T05:47:23.064Z,99.90
2022-10-13T05:49:50.876Z,99.90
2022-10-13T05:52:19.170Z,99.90
2022-10-13T05:54:51.679Z,99.90
2022-10-13T05:57:23.148Z,99.90
2022-10-13T05:59:56.132Z,99.90
2022-10-13T06:02:27.332Z,99.90
2022-10-13T06:04:58.098Z,99.90
2022-10-13T06:07:26.274Z,99.90
2022-10-13T06:09:54.403Z,99.90
2022-10-13T06:12:22.423Z,99.90
2022-10-13T06:14:50.456Z,99.90
2022-10-13T06:17:19.574Z,99.90
2022-10-13T06:19:47.378Z,99.90
2022-10-13T06:22:15.292Z,99.90
2022-10-13T06:24:43.088Z,99.90
2022-10-13T06:27:11.676Z,99.90
2022-10-13T06:29:39.519Z,99.90
2022-10-13T06:32:07.566Z,99.90
2022-10-13T06:34:36.912Z,99.90
2022-10-13T06:37:04.676Z,99.90
2022-10-13T06:39:32.484Z,99.90
2022-10-13T06:42:00.282Z,99.90
2022-10-13T06:44:28.050Z,99.90
2022-10-13T06:46:55.868Z,99.90
2022-10-13T06:49:24.439Z,99.90
2022-10-13T06:51:53.692Z,99.90
2022-10-13T06:54:22.178Z,99.90
2022-10-13T06:56:49.964Z,99.90
2022-10-13T06:59:17.782Z,99.90
2022-10-13T07:01:45.551Z,99.90
2022-10-13T07:04:13.433Z,99.90
2022-10-13T07:06:41.386Z,99.90
2022-10-13T07:09:11.353Z,99.90
2022-10-13T07:11:39.232Z,99.30
2022-10-13T07:14:07.053Z,98.80
2022-10-13T07:16:34.859Z,98.50
2022-10-13T07:19:02.761Z,99.00
2022-10-13T07:21:30.577Z,99.70
2022-10-13T07:23:58.421Z,99.90
2022-10-13T07:26:27.536Z,97.20
2022-10-13T07:28:55.620Z,94.90
2022-10-13T07:31:23.403Z,92.40
2022-10-13T07:33:51.710Z,95.20
2022-10-13T07:36:20.078Z,95.00
2022-10-13T07:38:47.971Z,94.80
2022-10-13T07:41:16.276Z,92.80
2022-10-13T07:43:45.606Z,92.90
2022-10-13T07:46:14.810Z,93.80
2022-10-13T07:48:42.907Z,92.00
2022-10-13T07:51:13.348Z,93.60
2022-10-13T07:53:41.963Z,91.20
2022-10-13T07:56:12.585Z,88.30
2022-10-13T07:58:43.652Z,86.60
2022-10-13T08:01:14.271Z,85.40
2022-10-13T08:03:45.762Z,84.10
2022-10-13T08:06:17.935Z,83.10
2022-10-13T08:08:45.856Z,81.00
2022-10-13T08:11:16.869Z,83.30
2022-10-13T08:13:48.604Z,81.30
2022-10-13T08:16:18.638Z,80.00
2022-10-13T08:18:46.631Z,79.20
2022-10-13T08:21:45.852Z,77.90
2022-10-13T08:24:05.973Z,76.70
2022-10-13T08:26:34.072Z,77.20
2022-10-13T08:29:21.896Z,78.40
2022-10-13T08:31:51.543Z,77.50
2022-10-13T08:34:19.607Z,79.10
2022-10-13T08:36:47.416Z,79.30
2022-10-13T08:39:15.390Z,78.90
2022-10-13T08:41:44.778Z,78.20
2022-10-13T08:47:16.617Z,77.40
2022-10-13T08:49:46.180Z,75.40
2022-10-13T08:52:19.722Z,75.00
2022-10-13T08:54:48.102Z,75.50
2022-10-13T08:57:16.045Z,74.60
2022-10-13T08:59:43.820Z,72.80
2022-10-13T09:02:15.620Z,71.90
2022-10-13T09:04:49.257Z,72.70
2022-10-13T09:07:21.226Z,71.10
2022-10-13T09:09:52.583Z,71.70
2022-10-13T09:12:24.205Z,71.60
2022-10-13T09:15:01.217Z,72.30
2022-10-13T09:17:31.200Z,72.00
2022-10-13T09:20:01.605Z,68.90
2022-10-13T09:22:30.855Z,70.60
2022-10-13T09:25:16.294Z,69.50
2022-10-13T09:27:47.396Z,69.20
2022-10-13T09:30:30.210Z,67.30
2022-10-13T09:33:15.078Z,67.40
2022-10-13T09:35:44.758Z,67.00
2022-10-13T09:38:15.607Z,67.90
2022-10-13T09:40:44.934Z,67.50
2022-10-13T09:43:30.986Z,67.90
2022-10-13T09:45:59.846Z,68.60
2022-10-13T09:48:31.695Z,67.70
2022-10-13T09:50:59.905Z,67.50
2022-10-13T09:53:33.290Z,68.40
2022-10-13T09:56:18.258Z,67.00
2022-10-13T09:58:51.618Z,65.80
2022-10-13T10:01:25.076Z,66.10
2022-10-13T10:03:55.899Z,66.30
2022-10-13T10:06:27.688Z,66.50
2022-10-13T10:09:03.809Z,64.70
2022-10-13T10:11:38.704Z,64.00
2022-10-13T10:14:17.463Z,64.50
2022-10-13T10:16:50.487Z,64.80
2022-10-13T10:19:23.592Z,65.90
2022-10-13T10:21:55.446Z,65.10
2022-10-13T10:24:31.792Z,64.40
2022-10-13T10:27:04.433Z,64.50
2022-10-13T10:29:41.554Z,64.40
2022-10-13T10:32:22.994Z,63.80
2022-10-13T10:34:57.992Z,64.10
2022-10-13T10:37:39.727Z,63.60
2022-10-13T10:40:22.201Z,64.70
2022-10-13T10:43:09.723Z,65.10
2022-10-13T10:45:40.626Z,65.40
2022-10-13T10:48:18.271Z,65.60
2022-10-13T10:50:48.060Z,66.90
2022-10-13T10:53:22.748Z,67.10
2022-10-13T10:55:56.072Z,67.50
2022-10-13T10:58:39.314Z,67.80
2022-10-13T11:01:15.768Z,69.10
2022-10-13T11:03:49.008Z,67.30
2022-10-13T11:06:27.148Z,66.80
2022-10-13T11:08:55.595Z,67.10
2022-10-13T11:11:40.798Z,67.30
2022-10-13T11:14:30.770Z,66.60
2022-10-13T11:17:28.468Z,66.30
2022-10-13T11:19:57.215Z,65.40
2022-10-13T11:22:27.430Z,65.40
2022-10-13T11:25:01.697Z,65.80
2022-10-13T11:27:40.740Z,64.80
2022-10-13T11:30:47.302Z,65.60
2022-10-13T11:33:35.655Z,65.30
2022-10-13T11:36:46.504Z,66.60
2022-10-13T11:39:50.754Z,65.90
2022-10-13T11:42:34.519Z,64.10
2022-10-13T11:45:05.524Z,65.40
2022-10-13T11:48:01.303Z,65.00
2022-10-13T11:50:38.337Z,65.00
2022-10-13T11:53:17.273Z,65.30
2022-10-13T11:55:50.675Z,65.60
2022-10-13T11:58:20.715Z,63.70
2022-10-13T12:00:53.069Z,63.50
2022-10-13T12:03:22.539Z,63.60
2022-10-13T12:05:51.241Z,62.10
2022-10-13T12:08:21.261Z,63.60
2022-10-13T12:10:57.164Z,63.80
2022-10-13T12:13:27.418Z,62.50
2022-10-13T12:16:03.008Z,60.90
2022-10-13T12:18:34.066Z,61.30
2022-10-13T12:21:04.519Z,62.70
2022-10-13T12:23:33.588Z,63.80
2022-10-13T12:26:03.203Z,62.50
2022-10-13T12:28:45.213Z,61.00
2022-10-13T12:31:20.292Z,61.40
2022-10-13T12:33:54.741Z,61.80
2022-10-13T12:36:26.266Z,61.20
2022-10-13T12:38:57.570Z,61.50
2022-10-13T12:41:31.638Z,62.40
2022-10-13T12:44:03.907Z,61.10
2022-10-13T12:46:38.810Z,58.90
2022-10-13T12:49:06.969Z,59.70
2022-10-13T12:51:37.201Z,59.70
2022-10-13T12:54:09.268Z,59.80
2022-10-13T12:56:38.372Z,60.60
2022-10-13T12:59:06.152Z,60.50
2022-10-13T13:01:35.526Z,60.80
2022-10-13T13:04:17.611Z,61.00
2022-10-13T13:06:54.448Z,62.50
2022-10-13T13:09:28.208Z,61.50
2022-10-13T13:12:20.859Z,62.30
2022-10-13T13:14:51.008Z,63.00
2022-10-13T13:20:26.709Z,63.00
2022-10-13T13:22:54.585Z,63.70
2022-10-13T13:25:22.882Z,63.10
2022-10-13T13:27:52.682Z,62.60
2022-10-13T13:30:23.034Z,63.90
2022-10-13T13:32:51.233Z,64.90
2022-10-13T13:35:19.429Z,65.40
2022-10-13T13:37:50.468Z,65.80
2022-10-13T13:40:20.430Z,66.80
2022-10-13T13:42:48.401Z,66.80
2022-10-13T13:45:19.715Z,66.20
2022-10-13T13:47:47.923Z,66.70
2022-10-13T13:50:19.603Z,66.20
2022-10-13T13:52:47.399Z,66.40
2022-10-13T13:55:15.424Z,66.90
2022-10-13T13:57:43.958Z,66.70
2022-10-13T14:00:13.560Z,66.90
2022-10-13T14:02:43.579Z,67.30
2022-10-13T14:05:12.357Z,67.40
2022-10-13T14:07:40.522Z,67.90
2022-10-13T14:10:10.648Z,67.40
2022-10-13T14:12:38.764Z,67.30
2022-10-13T14:15:08.473Z,67.80
2022-10-13T14:17:36.264Z,68.30
2022-10-13T14:20:06.393Z,69.10
2022-10-13T14:22:34.296Z,68.70
2022-10-13T14:25:02.055Z,68.80
2022-10-13T14:27:30.779Z,69.70
2022-10-13T14:29:58.541Z,70.60
2022-10-13T14:32:26.364Z,70.40
2022-10-13T14:34:54.116Z,70.30
2022-10-13T14:37:25.012Z,69.80
2022-10-13T14:39:54.519Z,70.00
2022-10-13T14:42:22.282Z,69.30
2022-10-13T14:44:50.047Z,69.10
2022-10-13T14:47:18.204Z,69.10
2022-10-13T14:49:46.159Z,68.50
2022-10-13T14:52:13.971Z,69.60
2022-10-13T14:54:45.076Z,70.30
2022-10-13T14:57:15.818Z,70.70
2022-10-13T14:59:44.248Z,70.30
2022-10-13T15:02:12.967Z,69.90
2022-10-13T15:04:41.228Z,70.30
2022-10-13T15:07:09.234Z,70.50
2022-10-13T15:09:53.067Z,71.00
2022-10-13T15:12:26.579Z,71.50
2022-10-13T15:14:54.351Z,71.40
2022-10-13T15:17:22.147Z,71.30
2022-10-13T15:19:50.054Z,72.40
2022-10-13T15:22:18.067Z,72.10
2022-10-13T15:24:46.890Z,72.60
2022-10-13T15:27:14.707Z,72.40
2022-10-13T15:29:43.877Z,72.60
2022-10-13T15:32:13.472Z,72.90
2022-10-13T15:34:41.367Z,73.40
2022-10-13T15:37:09.175Z,74.20
2022-10-13T15:39:37.296Z,74.30
2022-10-13T15:42:05.825Z,75.10
2022-10-13T15:44:57.447Z,75.40
2022-10-13T15:47:23.176Z,75.70
2022-10-13T15:49:50.932Z,76.40
2022-10-13T15:52:18.925Z,76.60
2022-10-13T15:54:48.684Z,77.10
2022-10-13T15:57:16.430Z,77.10
2022-10-13T15:59:44.187Z,77.20
2022-10-13T16:02:12.010Z,77.50
2022-10-13T16:04:41.132Z,78.30
2022-10-13T16:07:08.931Z,79.10
2022-10-13T16:09:36.688Z,79.30
2022-10-13T16:12:04.680Z,80.20
2022-10-13T16:14:33.218Z,81.30
2022-10-13T16:17:01.017Z,82.40
2022-10-13T16:19:28.893Z,82.90
2022-10-13T16:21:58.089Z,83.80
2022-10-13T16:24:27.032Z,84.40
2022-10-13T16:26:54.821Z,83.80
2022-10-13T16:29:22.572Z,83.70
2022-10-13T16:31:50.480Z,83.90
2022-10-13T16:34:18.517Z,84.20
2022-10-13T16:36:46.507Z,84.00
2022-10-13T16:39:16.003Z,83.70
2022-10-13T16:41:43.808Z,84.10
2022-10-13T16:44:11.724Z,84.30
2022-10-13T16:46:40.134Z,84.10
2022-10-13T16:49:07.925Z,83.70
2022-10-13T16:51:35.783Z,84.70
2022-10-13T16:54:04.607Z,85.90
2022-10-13T16:56:33.899Z,87.10
2022-10-13T16:59:03.414Z,86.90
2022-10-13T17:01:31.793Z,86.90
2022-10-13T17:04:00.163Z,86.30
2022-10-13T17:06:29.794Z,88.50
2022-10-13T17:08:59.517Z,88.80
2022-10-13T17:11:29.895Z,88.90
2022-10-13T17:14:00.112Z,89.70
2022-10-13T17:16:28.492Z,89.40
2022-10-13T17:18:57.049Z,90.10
2022-10-13T17:21:25.024Z,90.40
2022-10-13T17:23:52.813Z,91.60
2022-10-13T17:26:21.030Z,91.30
2022-10-13T17:28:49.375Z,91.10
2022-10-13T17:31:20.629Z,91.00
2022-10-13T17:33:49.919Z,92.00
2022-10-13T17:36:20.216Z,92.10
2022-10-13T17:38:49.166Z,92.20
2022-10-13T17:41:18.074Z,92.60
2022-10-13T17:43:45.995Z,93.40
2022-10-13T17:46:39.453Z,93.80
2022-10-13T17:49:11.373Z,94.50
2022-10-13T17:51:39.406Z,93.80
2022-10-13T17:54:11.437Z,94.60
2022-10-13T17:56:42.420Z,95.20
2022-10-13T17:59:10.799Z,94.00
2022-10-13T18:01:41.844Z,93.60
2022-10-13T18:04:13.953Z,94.30
2022-10-13T18:06:43.876Z,94.40
2022-10-13T18:09:13.654Z,94.40
2022-10-13T18:11:47.091Z,93.80
2022-10-13T18:14:18.322Z,93.20
2022-10-13T18:16:46.658Z,91.00
2022-10-13T18:19:15.817Z,90.60
2022-10-13T18:21:43.724Z,89.60
2022-10-13T18:24:12.072Z,89.10
2022-10-13T18:26:41.422Z,88.80
2022-10-13T18:29:11.643Z,90.20
2022-10-13T18:31:41.422Z,90.70
2022-10-13T18:34:11.387Z,91.60
2022-10-13T18:36:42.249Z,92.00
2022-10-13T18:39:13.129Z,92.20
2022-10-13T18:41:41.282Z,93.60
2022-10-13T18:44:09.629Z,93.60
2022-10-13T18:46:38.682Z,93.30
2022-10-13T18:49:08.461Z,93.90
2022-10-13T18:51:36.716Z,92.50
2022-10-13T18:54:06.833Z,92.30
2022-10-13T18:56:36.683Z,91.60
2022-10-13T18:59:06.012Z,92.70
2022-10-13T19:01:35.620Z,92.70
2022-10-13T19:04:04.077Z,93.40
2022-10-13T19:06:32.591Z,93.30
2022-10-13T19:09:01.612Z,93.80
2022-10-13T19:11:31.085Z,93.70
2022-10-13T19:14:00.137Z,94.20
2022-10-13T19:16:29.883Z,94.60
2022-10-13T19:18:58.106Z,94.90
2022-10-13T19:21:26.168Z,95.20
2022-10-13T19:23:55.003Z,96.10
2022-10-13T19:26:25.865Z,96.50
2022-10-13T19:28:57.269Z,96.30
2022-10-13T19:31:27.333Z,96.70
2022-10-13T19:33:55.239Z,96.70
2022-10-13T19:36:25.464Z,96.80
2022-10-13T19:38:53.328Z,97.50
2022-10-13T19:41:21.338Z,97.50
2022-10-13T19:43:49.311Z,96.60
2022-10-13T19:46:18.513Z,96.90
2022-10-13T19:48:46.845Z,96.90
2022-10-13T19:51:14.918Z,97.00
2022-10-13T19:53:43.302Z,97.00
2022-10-13T19:56:20.615Z,96.60
2022-10-13T19:58:48.695Z,96.40
2022-10-13T20:01:18.953Z,96.20
2022-10-13T20:03:47.309Z,95.80
2022-10-13T20:06:15.965Z,96.50
2022-10-13T20:08:44.864Z,96.90
2022-10-13T20:11:17.293Z,97.30
2022-10-13T20:13:49.234Z,97.70
2022-10-13T20:16:20.865Z,98.20
2022-10-13T20:18:52.929Z,98.40
2022-10-13T20:21:20.784Z,99.20
2022-10-13T20:23:48.791Z,99.50
2022-10-13T20:26:17.531Z,99.90
2022-10-13T20:28:46.553Z,99.90
2022-10-13T20:31:16.480Z,99.90
2022-10-13T20:33:46.841Z,99.90
2022-10-13T20:36:17.179Z,99.90
2022-10-13T20:38:45.185Z,99.90
2022-10-13T20:41:16.857Z,99.90
2022-10-13T20:43:45.100Z,99.90
2022-10-13T20:46:13.164Z,99.90
2022-10-13T20:51:20.295Z,99.90
2022-10-13T20:53:48.773Z,99.90
2022-10-13T20:56:19.045Z,99.90
2022-10-13T20:58:47.222Z,99.90
2022-10-13T21:01:15.197Z,99.90
2022-10-13T21:03:43.179Z,99.90
2022-10-13T21:06:13.911Z,99.90
2022-10-13T21:08:46.378Z,99.90
2022-10-13T21:11:16.337Z,99.90
2022-10-13T21:13:45.332Z,99.90
2022-10-13T21:16:14.815Z,99.90
2022-10-13T21:18:47.831Z,99.90
2022-10-13T21:21:17.344Z,99.90
2022-10-13T21:23:46.492Z,99.90
2022-10-13T21:26:18.851Z,99.90
2022-10-13T21:28:49.159Z,99.90
2022-10-13T21:31:17.863Z,99.90
2022-10-13T21:33:46.099Z,99.90
2022-10-13T21:36:16.512Z,99.90
2022-10-13T21:38:46.659Z,99.90
2022-10-13T21:41:15.827Z,99.90
2022-10-13T21:43:43.693Z,99.90
2022-10-13T21:46:12.889Z,99.90
2022-10-13T21:48:40.751Z,99.90
2022-10-13T21:51:13.375Z,99.90
2022-10-13T21:53:41.431Z,99.90
2022-10-13T21:56:12.497Z,99.90
2022-10-13T21:58:40.309Z,99.90
2022-10-13T22:01:08.786Z,99.90
2022-10-13T22:03:36.858Z,99.90
2022-10-13T22:06:06.731Z,99.90
2022-10-13T22:08:38.850Z,99.90
2022-10-13T22:11:08.556Z,99.90
2022-10-13T22:13:38.533Z,99.90
2022-10-13T22:16:08.350Z,99.90
2022-10-13T22:18:36.143Z,99.90
2022-10-13T22:21:05.805Z,99.90
2022-10-13T22:23:34.003Z,99.90
2022-10-13T22:26:01.788Z,99.90
2022-10-13T22:28:33.438Z,99.90
2022-10-13T22:31:06.481Z,99.90
2022-10-13T22:33:35.899Z,99.90
2022-10-13T22:36:07.436Z,99.90
2022-10-13T22:38:35.414Z,99.90
2022-10-13T22:41:03.970Z,99.90
2022-10-13T22:43:31.847Z,99.90
2022-10-13T22:46:01.813Z,99.90
2022-10-13T22:48:31.092Z,99.90
2022-10-13T22:50:58.870Z,99.90
2022-10-13T22:53:26.619Z,99.90
2022-10-13T22:55:54.350Z,99.90
2022-10-13T22:58:22.117Z,99.90
2022-10-13T23:00:49.879Z,99.90
2022-10-13T23:03:17.948Z,99.90
2022-10-13T23:05:49.741Z,99.90
2022-10-13T23:08:17.533Z,99.90
2022-10-13T23:10:45.275Z,99.90
2022-10-13T23:13:13.072Z,99.90
2022-10-13T23:15:40.859Z,99.90
2022-10-13T23:18:08.626Z,99.90
2022-10-13T23:20:40.110Z,99.90
2022-10-13T23:23:09.642Z,99.80
2022-10-13T23:25:38.404Z,99.90
2022-10-13T23:28:06.235Z,99.90
2022-10-13T23:30:33.983Z,99.90
2022-10-13T23:33:01.739Z,99.90
2022-10-13T23:35:29.511Z,99.90
2022-10-13T23:37:57.398Z,99.90
2022-10-13T23:40:26.491Z,99.90
2022-10-13T23:42:54.284Z,99.90
2022-10-13T23:45:22.044Z,99.90
2022-10-13T23:47:49.787Z,99.90
2022-10-13T23:50:17.612Z,99.90
2022-10-13T23:52:45.389Z,99.90
2022-10-13T23:55:13.130Z,99.90
2022-10-13T23:57:42.207Z,99.90
